sensor_id;sensor_type;location;lat;lon;timestamp;P1;durP1;ratioP1;P2;durP2;ratioP2
71172;SDS011;58875;51.996;4.504;2022-11-20T00:00:45;17.45;;;17.28;;
71172;SDS011;58875;51.996;4.504;2022-11-20T00:03:10;17.86;;;17.59;;
71172;SDS011;58875;51.996;4.504;2022-11-20T00:05:36;17.61;;;17.43;;
71172;SDS011;58875;51.996;4.504;2022-11-20T00:08:01;18.42;;;18.19;;
71172;SDS011;58875;51.996;4.504;2022-11-20T00:10:27;18.97;;;18.65;;
71172;SDS011;58875;51.996;4.504;2022-11-20T00:12:52;18.06;;;17.77;;
71172;SDS011;58875;51.996;4.504;2022-11-20T00:15:18;18.69;;;18.32;;
71172;SDS011;58875;51.996;4.504;2022-11-20T00:17:43;18.52;;;18.35;;
71172;SDS011;58875;51.996;4.504;2022-11-20T00:20:09;17.65;;;17.58;;
71172;SDS011;58875;51.996;4.504;2022-11-20T00:22:35;17.90;;;17.74;;
71172;SDS011;58875;51.996;4.504;2022-11-20T00:25:01;19.21;;;18.96;;
71172;SDS011;58875;51.996;4.504;2022-11-20T00:27:26;18.09;;;17.87;;
71172;SDS011;58875;51.996;4.504;2022-11-20T00:29:52;18.12;;;17.79;;
71172;SDS011;58875;51.996;4.504;2022-11-20T00:32:17;17.73;;;17.48;;
71172;SDS011;58875;51.996;4.504;2022-11-20T00:34:43;18.53;;;18.22;;
71172;SDS011;58875;51.996;4.504;2022-11-20T00:37:08;18.50;;;18.29;;
71172;SDS011;58875;51.996;4.504;2022-11-20T00:39:34;19.26;;;18.89;;
71172;SDS011;58875;51.996;4.504;2022-11-20T00:41:59;19.03;;;18.65;;
71172;SDS011;58875;51.996;4.504;2022-11-20T00:44:25;18.86;;;18.52;;
71172;SDS011;58875;51.996;4.504;2022-11-20T00:46:50;22.72;;;22.34;;
71172;SDS011;58875;51.996;4.504;2022-11-20T00:49:16;26.38;;;25.64;;
71172;SDS011;58875;51.996;4.504;2022-11-20T00:51:41;24.19;;;23.35;;
71172;SDS011;58875;51.996;4.504;2022-11-20T00:54:07;23.14;;;22.59;;
71172;SDS011;58875;51.996;4.504;2022-11-20T00:56:32;22.31;;;21.66;;
71172;SDS011;58875;51.996;4.504;2022-11-20T00:58:59;21.66;;;21.04;;
71172;SDS011;58875;51.996;4.504;2022-11-20T01:01:26;21.39;;;20.70;;
71172;SDS011;58875;51.996;4.504;2022-11-20T01:03:54;21.07;;;20.47;;
71172;SDS011;58875;51.996;4.504;2022-11-20T01:06:23;21.03;;;20.30;;
71172;SDS011;58875;51.996;4.504;2022-11-20T01:08:51;20.06;;;19.53;;
71172;SDS011;58875;51.996;4.504;2022-11-20T01:11:20;19.16;;;18.68;;
71172;SDS011;58875;51.996;4.504;2022-11-20T01:13:48;18.64;;;18.21;;
71172;SDS011;58875;51.996;4.504;2022-11-20T01:16:17;18.68;;;18.04;;
71172;SDS011;58875;51.996;4.504;2022-11-20T01:18:46;17.31;;;16.96;;
71172;SDS011;58875;51.996;4.504;2022-11-20T01:21:15;16.60;;;16.42;;
71172;SDS011;58875;51.996;4.504;2022-11-20T01:23:44;16.99;;;16.70;;
71172;SDS011;58875;51.996;4.504;2022-11-20T01:26:14;17.07;;;16.73;;
71172;SDS011;58875;51.996;4.504;2022-11-20T01:28:42;17.27;;;16.84;;
71172;SDS011;58875;51.996;4.504;2022-11-20T01:31:12;17.52;;;17.14;;
71172;SDS011;58875;51.996;4.504;2022-11-20T01:33:40;16.57;;;16.23;;
71172;SDS011;58875;51.996;4.504;2022-11-20T01:38:45;16.53;;;16.14;;
71172;SDS011;58875;51.996;4.504;2022-11-20T01:41:11;16.41;;;15.99;;
71172;SDS011;58875;51.996;4.504;2022-11-20T01:43:59;16.18;;;15.82;;
71172;SDS011;58875;51.996;4.504;2022-11-20T01:46:25;16.88;;;16.49;;
71172;SDS011;58875;51.996;4.504;2022-11-20T01:53:59;16.07;;;15.75;;
71172;SDS011;58875;51.996;4.504;2022-11-20T01:56:30;16.52;;;16.05;;
71172;SDS011;58875;51.996;4.504;2022-11-20T01:59:02;16.27;;;16.06;;
71172;SDS011;58875;51.996;4.504;2022-11-20T02:01:32;16.52;;;16.20;;
71172;SDS011;58875;51.996;4.504;2022-11-20T02:03:59;16.71;;;16.37;;
71172;SDS011;58875;51.996;4.504;2022-11-20T02:06:30;16.53;;;16.31;;
71172;SDS011;58875;51.996;4.504;2022-11-20T02:09:05;16.19;;;16.07;;
71172;SDS011;58875;51.996;4.504;2022-11-20T02:11:31;16.03;;;15.79;;
71172;SDS011;58875;51.996;4.504;2022-11-20T02:13:57;16.29;;;15.99;;
71172;SDS011;58875;51.996;4.504;2022-11-20T02:18:52;16.54;;;16.16;;
71172;SDS011;58875;51.996;4.504;2022-11-20T02:26:56;17.17;;;16.74;;
71172;SDS011;58875;51.996;4.504;2022-11-20T02:29:27;16.42;;;16.03;;
71172;SDS011;58875;51.996;4.504;2022-11-20T02:31:59;16.71;;;16.46;;
71172;SDS011;58875;51.996;4.504;2022-11-20T02:34:27;16.13;;;15.88;;
71172;SDS011;58875;51.996;4.504;2022-11-20T02:36:53;15.89;;;15.55;;
71172;SDS011;58875;51.996;4.504;2022-11-20T02:39:22;16.20;;;15.74;;
71172;SDS011;58875;51.996;4.504;2022-11-20T02:41:52;17.47;;;17.08;;
71172;SDS011;58875;51.996;4.504;2022-11-20T02:44:19;19.97;;;19.42;;
71172;SDS011;58875;51.996;4.504;2022-11-20T02:46:45;19.59;;;19.30;;
71172;SDS011;58875;51.996;4.504;2022-11-20T02:49:11;20.88;;;20.67;;
71172;SDS011;58875;51.996;4.504;2022-11-20T02:51:37;20.52;;;20.12;;
71172;SDS011;58875;51.996;4.504;2022-11-20T02:54:02;19.50;;;19.03;;
71172;SDS011;58875;51.996;4.504;2022-11-20T02:56:28;18.20;;;17.93;;
71172;SDS011;58875;51.996;4.504;2022-11-20T02:58:54;17.72;;;17.35;;
71172;SDS011;58875;51.996;4.504;2022-11-20T03:01:20;18.08;;;17.64;;
71172;SDS011;58875;51.996;4.504;2022-11-20T03:03:46;18.81;;;18.11;;
71172;SDS011;58875;51.996;4.504;2022-11-20T03:06:14;18.37;;;17.87;;
71172;SDS011;58875;51.996;4.504;2022-11-20T03:08:41;17.65;;;17.38;;
71172;SDS011;58875;51.996;4.504;2022-11-20T03:11:07;18.65;;;18.23;;
71172;SDS011;58875;51.996;4.504;2022-11-20T03:13:33;17.97;;;17.75;;
71172;SDS011;58875;51.996;4.504;2022-11-20T03:16:06;17.61;;;17.38;;
71172;SDS011;58875;51.996;4.504;2022-11-20T03:18:34;17.68;;;17.41;;
71172;SDS011;58875;51.996;4.504;2022-11-20T03:20:59;17.59;;;17.39;;
71172;SDS011;58875;51.996;4.504;2022-11-20T03:23:25;17.72;;;17.36;;
71172;SDS011;58875;51.996;4.504;2022-11-20T03:25:51;17.67;;;17.29;;
71172;SDS011;58875;51.996;4.504;2022-11-20T03:28:16;17.28;;;17.01;;
71172;SDS011;58875;51.996;4.504;2022-11-20T03:30:42;17.13;;;16.85;;
71172;SDS011;58875;51.996;4.504;2022-11-20T03:33:07;17.02;;;16.80;;
71172;SDS011;58875;51.996;4.504;2022-11-20T03:35:33;17.00;;;16.76;;
71172;SDS011;58875;51.996;4.504;2022-11-20T03:37:59;17.09;;;16.84;;
71172;SDS011;58875;51.996;4.504;2022-11-20T03:40:24;17.25;;;16.85;;
71172;SDS011;58875;51.996;4.504;2022-11-20T03:42:50;17.59;;;17.19;;
71172;SDS011;58875;51.996;4.504;2022-11-20T03:45:16;17.45;;;17.17;;
71172;SDS011;58875;51.996;4.504;2022-11-20T03:47:43;17.10;;;16.94;;
71172;SDS011;58875;51.996;4.504;2022-11-20T03:50:10;17.58;;;17.30;;
71172;SDS011;58875;51.996;4.504;2022-11-20T03:52:39;17.52;;;17.21;;
71172;SDS011;58875;51.996;4.504;2022-11-20T03:55:06;18.75;;;18.42;;
71172;SDS011;58875;51.996;4.504;2022-11-20T03:57:32;19.20;;;18.80;;
71172;SDS011;58875;51.996;4.504;2022-11-20T03:59:58;19.15;;;18.66;;
71172;SDS011;58875;51.996;4.504;2022-11-20T04:02:23;19.73;;;19.27;;
71172;SDS011;58875;51.996;4.504;2022-11-20T04:04:49;20.16;;;19.49;;
71172;SDS011;58875;51.996;4.504;2022-11-20T04:07:14;20.27;;;19.72;;
71172;SDS011;58875;51.996;4.504;2022-11-20T04:09:40;21.66;;;21.25;;
71172;SDS011;58875;51.996;4.504;2022-11-20T04:12:06;22.38;;;21.92;;
71172;SDS011;58875;51.996;4.504;2022-11-20T04:14:31;23.56;;;23.10;;
71172;SDS011;58875;51.996;4.504;2022-11-20T04:16:57;24.07;;;23.55;;
71172;SDS011;58875;51.996;4.504;2022-11-20T04:19:22;23.81;;;23.41;;
71172;SDS011;58875;51.996;4.504;2022-11-20T04:21:48;24.42;;;23.91;;
71172;SDS011;58875;51.996;4.504;2022-11-20T04:24:13;23.63;;;23.18;;
71172;SDS011;58875;51.996;4.504;2022-11-20T04:26:39;24.04;;;23.50;;
71172;SDS011;58875;51.996;4.504;2022-11-20T04:29:05;23.57;;;23.08;;
71172;SDS011;58875;51.996;4.504;2022-11-20T04:31:32;23.14;;;22.56;;
71172;SDS011;58875;51.996;4.504;2022-11-20T04:34:03;22.49;;;21.91;;
71172;SDS011;58875;51.996;4.504;2022-11-20T04:36:30;21.06;;;20.79;;
71172;SDS011;58875;51.996;4.504;2022-11-20T04:38:57;20.23;;;19.83;;
71172;SDS011;58875;51.996;4.504;2022-11-20T04:41:25;19.29;;;18.86;;
71172;SDS011;58875;51.996;4.504;2022-11-20T04:43:54;19.32;;;18.98;;
71172;SDS011;58875;51.996;4.504;2022-11-20T04:46:25;18.84;;;18.50;;
71172;SDS011;58875;51.996;4.504;2022-11-20T04:48:51;18.89;;;18.55;;
71172;SDS011;58875;51.996;4.504;2022-11-20T04:51:17;18.77;;;18.36;;
71172;SDS011;58875;51.996;4.504;2022-11-20T04:53:43;19.01;;;18.54;;
71172;SDS011;58875;51.996;4.504;2022-11-20T04:56:09;18.75;;;18.38;;
71172;SDS011;58875;51.996;4.504;2022-11-20T04:58:37;18.54;;;18.10;;
71172;SDS011;58875;51.996;4.504;2022-11-20T05:01:04;18.09;;;17.81;;
71172;SDS011;58875;51.996;4.504;2022-11-20T05:03:35;19.16;;;18.68;;
71172;SDS011;58875;51.996;4.504;2022-11-20T05:06:01;17.94;;;17.67;;
71172;SDS011;58875;51.996;4.504;2022-11-20T05:08:28;18.49;;;18.28;;
71172;SDS011;58875;51.996;4.504;2022-11-20T05:10:59;18.65;;;18.32;;
71172;SDS011;58875;51.996;4.504;2022-11-20T05:13:29;18.37;;;17.97;;
71172;SDS011;58875;51.996;4.504;2022-11-20T05:15:54;18.18;;;17.88;;
71172;SDS011;58875;51.996;4.504;2022-11-20T05:18:20;17.96;;;17.68;;
71172;SDS011;58875;51.996;4.504;2022-11-20T05:20:46;18.48;;;18.10;;
71172;SDS011;58875;51.996;4.504;2022-11-20T05:23:12;18.08;;;17.69;;
71172;SDS011;58875;51.996;4.504;2022-11-20T05:25:37;18.49;;;18.10;;
71172;SDS011;58875;51.996;4.504;2022-11-20T05:28:04;18.83;;;18.48;;
71172;SDS011;58875;51.996;4.504;2022-11-20T05:30:30;18.57;;;18.39;;
71172;SDS011;58875;51.996;4.504;2022-11-20T05:32:55;18.78;;;18.42;;
71172;SDS011;58875;51.996;4.504;2022-11-20T05:35:21;18.74;;;18.38;;
71172;SDS011;58875;51.996;4.504;2022-11-20T05:37:47;18.78;;;18.38;;
71172;SDS011;58875;51.996;4.504;2022-11-20T05:40:12;18.11;;;17.65;;
71172;SDS011;58875;51.996;4.504;2022-11-20T05:42:38;18.32;;;17.94;;
71172;SDS011;58875;51.996;4.504;2022-11-20T05:45:05;18.17;;;17.74;;
71172;SDS011;58875;51.996;4.504;2022-11-20T05:47:31;18.54;;;18.20;;
71172;SDS011;58875;51.996;4.504;2022-11-20T05:49:59;18.49;;;18.23;;
71172;SDS011;58875;51.996;4.504;2022-11-20T05:52:27;18.39;;;18.03;;
71172;SDS011;58875;51.996;4.504;2022-11-20T05:54:53;17.80;;;17.56;;
71172;SDS011;58875;51.996;4.504;2022-11-20T05:57:19;18.68;;;18.45;;
71172;SDS011;58875;51.996;4.504;2022-11-20T05:59:44;18.26;;;18.00;;
71172;SDS011;58875;51.996;4.504;2022-11-20T06:02:10;18.72;;;18.35;;
71172;SDS011;58875;51.996;4.504;2022-11-20T06:04:36;18.73;;;18.38;;
71172;SDS011;58875;51.996;4.504;2022-11-20T06:07:02;18.97;;;18.65;;
71172;SDS011;58875;51.996;4.504;2022-11-20T06:09:27;19.40;;;18.90;;
71172;SDS011;58875;51.996;4.504;2022-11-20T06:11:53;19.24;;;18.82;;
71172;SDS011;58875;51.996;4.504;2022-11-20T06:14:18;18.72;;;18.51;;
71172;SDS011;58875;51.996;4.504;2022-11-20T06:16:44;18.85;;;18.72;;
71172;SDS011;58875;51.996;4.504;2022-11-20T06:19:10;19.20;;;18.76;;
71172;SDS011;58875;51.996;4.504;2022-11-20T06:21:35;19.76;;;19.18;;
71172;SDS011;58875;51.996;4.504;2022-11-20T06:24:01;19.04;;;18.74;;
71172;SDS011;58875;51.996;4.504;2022-11-20T06:26:26;19.64;;;19.37;;
71172;SDS011;58875;51.996;4.504;2022-11-20T06:28:53;19.93;;;19.41;;
71172;SDS011;58875;51.996;4.504;2022-11-20T06:31:23;19.21;;;18.79;;
71172;SDS011;58875;51.996;4.504;2022-11-20T06:33:51;19.75;;;19.51;;
71172;SDS011;58875;51.996;4.504;2022-11-20T06:36:18;19.85;;;19.40;;
71172;SDS011;58875;51.996;4.504;2022-11-20T06:38:48;19.88;;;19.46;;
71172;SDS011;58875;51.996;4.504;2022-11-20T06:41:17;19.71;;;19.29;;
71172;SDS011;58875;51.996;4.504;2022-11-20T06:43:44;20.63;;;20.14;;
71172;SDS011;58875;51.996;4.504;2022-11-20T06:46:11;20.01;;;19.56;;
71172;SDS011;58875;51.996;4.504;2022-11-20T06:48:40;19.53;;;19.12;;
71172;SDS011;58875;51.996;4.504;2022-11-20T06:51:06;19.26;;;18.94;;
71172;SDS011;58875;51.996;4.504;2022-11-20T06:53:32;19.72;;;19.52;;
71172;SDS011;58875;51.996;4.504;2022-11-20T06:55:59;19.55;;;19.41;;
71172;SDS011;58875;51.996;4.504;2022-11-20T06:58:28;19.52;;;19.18;;
71172;SDS011;58875;51.996;4.504;2022-11-20T07:01:03;20.30;;;19.65;;
71172;SDS011;58875;51.996;4.504;2022-11-20T07:03:30;19.79;;;19.25;;
71172;SDS011;58875;51.996;4.504;2022-11-20T07:05:58;19.85;;;19.47;;
71172;SDS011;58875;51.996;4.504;2022-11-20T07:08:26;19.78;;;19.56;;
71172;SDS011;58875;51.996;4.504;2022-11-20T07:10:52;20.28;;;19.83;;
71172;SDS011;58875;51.996;4.504;2022-11-20T07:13:18;20.23;;;19.83;;
71172;SDS011;58875;51.996;4.504;2022-11-20T07:15:44;20.04;;;19.58;;
71172;SDS011;58875;51.996;4.504;2022-11-20T07:18:12;20.20;;;19.80;;
71172;SDS011;58875;51.996;4.504;2022-11-20T07:20:37;20.50;;;20.05;;
71172;SDS011;58875;51.996;4.504;2022-11-20T07:23:03;20.61;;;20.14;;
71172;SDS011;58875;51.996;4.504;2022-11-20T07:25:28;20.68;;;20.25;;
71172;SDS011;58875;51.996;4.504;2022-11-20T07:27:59;20.77;;;20.00;;
71172;SDS011;58875;51.996;4.504;2022-11-20T07:30:26;19.90;;;19.42;;
71172;SDS011;58875;51.996;4.504;2022-11-20T07:32:52;19.56;;;19.27;;
71172;SDS011;58875;51.996;4.504;2022-11-20T07:35:20;19.62;;;19.46;;
71172;SDS011;58875;51.996;4.504;2022-11-20T07:37:46;19.86;;;19.55;;
71172;SDS011;58875;51.996;4.504;2022-11-20T07:40:13;19.52;;;19.23;;
71172;SDS011;58875;51.996;4.504;2022-11-20T07:42:49;19.54;;;19.31;;
71172;SDS011;58875;51.996;4.504;2022-11-20T07:45:16;20.20;;;19.74;;
71172;SDS011;58875;51.996;4.504;2022-11-20T07:47:42;19.42;;;19.15;;
71172;SDS011;58875;51.996;4.504;2022-11-20T07:50:08;20.64;;;20.19;;
71172;SDS011;58875;51.996;4.504;2022-11-20T07:52:34;20.00;;;19.79;;
71172;SDS011;58875;51.996;4.504;2022-11-20T07:55:00;20.78;;;20.40;;
71172;SDS011;58875;51.996;4.504;2022-11-20T07:57:25;20.65;;;20.38;;
71172;SDS011;58875;51.996;4.504;2022-11-20T07:59:51;20.55;;;20.25;;
71172;SDS011;58875;51.996;4.504;2022-11-20T08:02:16;20.93;;;20.54;;
71172;SDS011;58875;51.996;4.504;2022-11-20T08:04:42;21.06;;;20.66;;
71172;SDS011;58875;51.996;4.504;2022-11-20T08:07:09;20.55;;;20.28;;
71172;SDS011;58875;51.996;4.504;2022-11-20T08:09:34;21.42;;;21.12;;
71172;SDS011;58875;51.996;4.504;2022-11-20T08:12:00;21.02;;;20.79;;
71172;SDS011;58875;51.996;4.504;2022-11-20T08:14:44;21.83;;;21.58;;
71172;SDS011;58875;51.996;4.504;2022-11-20T08:17:09;21.60;;;21.25;;
71172;SDS011;58875;51.996;4.504;2022-11-20T08:19:35;22.30;;;21.94;;
71172;SDS011;58875;51.996;4.504;2022-11-20T08:22:00;22.36;;;21.81;;
71172;SDS011;58875;51.996;4.504;2022-11-20T08:24:26;21.72;;;21.51;;
71172;SDS011;58875;51.996;4.504;2022-11-20T08:26:52;22.43;;;22.19;;
71172;SDS011;58875;51.996;4.504;2022-11-20T08:29:20;22.24;;;22.02;;
71172;SDS011;58875;51.996;4.504;2022-11-20T08:31:46;23.20;;;22.88;;
71172;SDS011;58875;51.996;4.504;2022-11-20T08:34:12;21.86;;;21.77;;
71172;SDS011;58875;51.996;4.504;2022-11-20T08:36:37;22.30;;;22.23;;
71172;SDS011;58875;51.996;4.504;2022-11-20T08:39:03;22.51;;;22.29;;
71172;SDS011;58875;51.996;4.504;2022-11-20T08:41:32;22.60;;;22.50;;
71172;SDS011;58875;51.996;4.504;2022-11-20T08:44:05;22.83;;;22.54;;
71172;SDS011;58875;51.996;4.504;2022-11-20T08:46:33;22.26;;;22.03;;
71172;SDS011;58875;51.996;4.504;2022-11-20T08:49:05;22.64;;;22.36;;
71172;SDS011;58875;51.996;4.504;2022-11-20T08:51:32;21.98;;;21.72;;
71172;SDS011;58875;51.996;4.504;2022-11-20T08:53:58;22.27;;;22.20;;
71172;SDS011;58875;51.996;4.504;2022-11-20T08:56:24;22.34;;;22.21;;
71172;SDS011;58875;51.996;4.504;2022-11-20T08:58:50;22.93;;;22.74;;
71172;SDS011;58875;51.996;4.504;2022-11-20T09:01:21;22.67;;;22.61;;
71172;SDS011;58875;51.996;4.504;2022-11-20T09:03:48;23.09;;;22.89;;
71172;SDS011;58875;51.996;4.504;2022-11-20T09:06:15;22.84;;;22.61;;
71172;SDS011;58875;51.996;4.504;2022-11-20T09:08:41;23.45;;;23.35;;
71172;SDS011;58875;51.996;4.504;2022-11-20T09:11:07;24.56;;;24.42;;
71172;SDS011;58875;51.996;4.504;2022-11-20T09:13:34;24.34;;;24.06;;
71172;SDS011;58875;51.996;4.504;2022-11-20T09:16:02;23.48;;;23.29;;
71172;SDS011;58875;51.996;4.504;2022-11-20T09:18:33;23.56;;;23.43;;
71172;SDS011;58875;51.996;4.504;2022-11-20T09:21:03;23.24;;;23.17;;
71172;SDS011;58875;51.996;4.504;2022-11-20T09:23:36;23.62;;;23.51;;
71172;SDS011;58875;51.996;4.504;2022-11-20T09:26:13;23.72;;;23.67;;
71172;SDS011;58875;51.996;4.504;2022-11-20T09:28:39;24.41;;;24.35;;
71172;SDS011;58875;51.996;4.504;2022-11-20T09:31:05;24.57;;;24.36;;
71172;SDS011;58875;51.996;4.504;2022-11-20T09:33:32;24.47;;;24.25;;
71172;SDS011;58875;51.996;4.504;2022-11-20T09:35:59;24.60;;;24.50;;
71172;SDS011;58875;51.996;4.504;2022-11-20T09:38:25;25.55;;;25.21;;
71172;SDS011;58875;51.996;4.504;2022-11-20T09:40:58;25.48;;;25.26;;
71172;SDS011;58875;51.996;4.504;2022-11-20T09:48:36;25.89;;;25.72;;
71172;SDS011;58875;51.996;4.504;2022-11-20T09:51:16;25.31;;;25.14;;
71172;SDS011;58875;51.996;4.504;2022-11-20T09:54:05;25.85;;;25.66;;
71172;SDS011;58875;51.996;4.504;2022-11-20T09:56:36;26.01;;;25.85;;
71172;SDS011;58875;51.996;4.504;2022-11-20T09:59:08;26.05;;;25.94;;
71172;SDS011;58875;51.996;4.504;2022-11-20T10:02:28;25.92;;;25.75;;
71172;SDS011;58875;51.996;4.504;2022-11-20T10:10:50;27.62;;;27.30;;
71172;SDS011;58875;51.996;4.504;2022-11-20T10:13:46;27.65;;;27.31;;
71172;SDS011;58875;51.996;4.504;2022-11-20T10:16:33;28.15;;;27.65;;
71172;SDS011;58875;51.996;4.504;2022-11-20T10:22:25;27.53;;;27.23;;
71172;SDS011;58875;51.996;4.504;2022-11-20T10:28:20;26.16;;;26.07;;
71172;SDS011;58875;51.996;4.504;2022-11-20T10:31:11;26.40;;;26.23;;
71172;SDS011;58875;51.996;4.504;2022-11-20T10:34:15;26.02;;;25.81;;
71172;SDS011;58875;51.996;4.504;2022-11-20T10:36:59;26.45;;;26.24;;
71172;SDS011;58875;51.996;4.504;2022-11-20T10:39:39;27.36;;;27.17;;
71172;SDS011;58875;51.996;4.504;2022-11-20T10:42:11;28.06;;;27.59;;
71172;SDS011;58875;51.996;4.504;2022-11-20T10:44:49;27.36;;;27.06;;
71172;SDS011;58875;51.996;4.504;2022-11-20T10:47:26;28.06;;;27.59;;
71172;SDS011;58875;51.996;4.504;2022-11-20T10:49:55;27.72;;;27.42;;
71172;SDS011;58875;51.996;4.504;2022-11-20T10:55:30;27.76;;;27.73;;
71172;SDS011;58875;51.996;4.504;2022-11-20T11:00:49;28.03;;;27.81;;
71172;SDS011;58875;51.996;4.504;2022-11-20T11:03:28;27.92;;;27.73;;
71172;SDS011;58875;51.996;4.504;2022-11-20T11:06:03;28.25;;;28.15;;
71172;SDS011;58875;51.996;4.504;2022-11-20T11:08:37;28.23;;;27.82;;
71172;SDS011;58875;51.996;4.504;2022-11-20T11:11:15;27.77;;;27.46;;
71172;SDS011;58875;51.996;4.504;2022-11-20T11:13:47;28.23;;;27.97;;
71172;SDS011;58875;51.996;4.504;2022-11-20T11:16:31;28.11;;;27.83;;
71172;SDS011;58875;51.996;4.504;2022-11-20T11:19:04;28.85;;;28.54;;
71172;SDS011;58875;51.996;4.504;2022-11-20T11:21:31;29.26;;;28.77;;
71172;SDS011;58875;51.996;4.504;2022-11-20T11:23:58;29.90;;;29.34;;
71172;SDS011;58875;51.996;4.504;2022-11-20T11:26:27;29.91;;;29.34;;
71172;SDS011;58875;51.996;4.504;2022-11-20T11:29:00;30.51;;;29.96;;
71172;SDS011;58875;51.996;4.504;2022-11-20T11:31:29;30.60;;;29.88;;
71172;SDS011;58875;51.996;4.504;2022-11-20T11:37:32;32.07;;;31.16;;
71172;SDS011;58875;51.996;4.504;2022-11-20T11:39:42;32.46;;;31.94;;
71172;SDS011;58875;51.996;4.504;2022-11-20T11:42:12;33.27;;;32.53;;
71172;SDS011;58875;51.996;4.504;2022-11-20T11:44:44;32.31;;;31.62;;
71172;SDS011;58875;51.996;4.504;2022-11-20T11:47:31;33.05;;;32.09;;
71172;SDS011;58875;51.996;4.504;2022-11-20T11:52:40;32.50;;;31.65;;
71172;SDS011;58875;51.996;4.504;2022-11-20T11:55:37;33.41;;;32.58;;
71172;SDS011;58875;51.996;4.504;2022-11-20T12:01:04;32.60;;;31.50;;
71172;SDS011;58875;51.996;4.504;2022-11-20T12:03:35;31.50;;;30.73;;
71172;SDS011;58875;51.996;4.504;2022-11-20T12:06:07;31.38;;;30.80;;
71172;SDS011;58875;51.996;4.504;2022-11-20T12:08:46;31.76;;;30.97;;
71172;SDS011;58875;51.996;4.504;2022-11-20T12:11:23;31.33;;;30.64;;
71172;SDS011;58875;51.996;4.504;2022-11-20T12:17:01;33.37;;;32.29;;
71172;SDS011;58875;51.996;4.504;2022-11-20T12:19:31;32.08;;;31.40;;
71172;SDS011;58875;51.996;4.504;2022-11-20T12:27:37;32.23;;;31.63;;
71172;SDS011;58875;51.996;4.504;2022-11-20T12:30:26;32.07;;;31.33;;
71172;SDS011;58875;51.996;4.504;2022-11-20T12:38:33;33.19;;;32.08;;
71172;SDS011;58875;51.996;4.504;2022-11-20T12:44:33;33.76;;;32.65;;
71172;SDS011;58875;51.996;4.504;2022-11-20T12:53:41;34.36;;;33.22;;
71172;SDS011;58875;51.996;4.504;2022-11-20T13:07:27;33.75;;;32.62;;
71172;SDS011;58875;51.996;4.504;2022-11-20T13:09:54;33.74;;;32.79;;
71172;SDS011;58875;51.996;4.504;2022-11-20T13:18:12;33.70;;;32.85;;
71172;SDS011;58875;51.996;4.504;2022-11-20T13:20:43;35.87;;;34.47;;
71172;SDS011;58875;51.996;4.504;2022-11-20T13:23:10;36.47;;;34.85;;
71172;SDS011;58875;51.996;4.504;2022-11-20T13:25:47;35.52;;;34.36;;
71172;SDS011;58875;51.996;4.504;2022-11-20T13:30:50;37.01;;;35.32;;
71172;SDS011;58875;51.996;4.504;2022-11-20T13:33:31;37.23;;;35.81;;
71172;SDS011;58875;51.996;4.504;2022-11-20T13:36:03;37.55;;;35.71;;
71172;SDS011;58875;51.996;4.504;2022-11-20T13:38:48;38.20;;;36.17;;
71172;SDS011;58875;51.996;4.504;2022-11-20T13:41:29;37.63;;;35.97;;
71172;SDS011;58875;51.996;4.504;2022-11-20T13:44:08;38.10;;;36.61;;
71172;SDS011;58875;51.996;4.504;2022-11-20T13:46:43;39.85;;;38.05;;
71172;SDS011;58875;51.996;4.504;2022-11-20T13:49:18;40.20;;;38.06;;
71172;SDS011;58875;51.996;4.504;2022-11-20T13:51:59;38.65;;;36.80;;
71172;SDS011;58875;51.996;4.504;2022-11-20T13:57:23;39.03;;;36.95;;
71172;SDS011;58875;51.996;4.504;2022-11-20T14:00:13;41.10;;;38.22;;
71172;SDS011;58875;51.996;4.504;2022-11-20T14:02:42;40.43;;;37.59;;
71172;SDS011;58875;51.996;4.504;2022-11-20T14:05:19;39.07;;;36.62;;
71172;SDS011;58875;51.996;4.504;2022-11-20T14:07:49;39.27;;;37.14;;
71172;SDS011;58875;51.996;4.504;2022-11-20T14:10:21;38.65;;;36.59;;
71172;SDS011;58875;51.996;4.504;2022-11-20T14:12:49;39.75;;;37.16;;
71172;SDS011;58875;51.996;4.504;2022-11-20T14:15:26;38.56;;;36.47;;
71172;SDS011;58875;51.996;4.504;2022-11-20T14:18:10;38.15;;;36.16;;
71172;SDS011;58875;51.996;4.504;2022-11-20T14:20:38;39.99;;;37.34;;
71172;SDS011;58875;51.996;4.504;2022-11-20T14:23:07;39.32;;;36.57;;
71172;SDS011;58875;51.996;4.504;2022-11-20T14:25:35;40.20;;;37.41;;
71172;SDS011;58875;51.996;4.504;2022-11-20T14:28:02;39.37;;;37.44;;
71172;SDS011;58875;51.996;4.504;2022-11-20T14:30:35;40.40;;;38.13;;
71172;SDS011;58875;51.996;4.504;2022-11-20T14:33:13;41.01;;;38.23;;
71172;SDS011;58875;51.996;4.504;2022-11-20T14:35:44;40.82;;;38.07;;
71172;SDS011;58875;51.996;4.504;2022-11-20T14:38:13;41.42;;;38.37;;
71172;SDS011;58875;51.996;4.504;2022-11-20T14:40:41;39.51;;;37.61;;
71172;SDS011;58875;51.996;4.504;2022-11-20T14:43:23;42.40;;;39.35;;
71172;SDS011;58875;51.996;4.504;2022-11-20T14:48:32;41.09;;;38.16;;
71172;SDS011;58875;51.996;4.504;2022-11-20T14:51:04;41.23;;;38.35;;
71172;SDS011;58875;51.996;4.504;2022-11-20T14:53:30;39.45;;;37.22;;
71172;SDS011;58875;51.996;4.504;2022-11-20T14:55:56;39.98;;;37.54;;
71172;SDS011;58875;51.996;4.504;2022-11-20T14:58:25;42.83;;;39.37;;
71172;SDS011;58875;51.996;4.504;2022-11-20T15:00:54;40.78;;;37.82;;
71172;SDS011;58875;51.996;4.504;2022-11-20T15:03:36;43.00;;;39.28;;
71172;SDS011;58875;51.996;4.504;2022-11-20T15:06:04;41.83;;;38.95;;
71172;SDS011;58875;51.996;4.504;2022-11-20T15:08:33;42.42;;;39.25;;
71172;SDS011;58875;51.996;4.504;2022-11-20T15:10:59;41.49;;;38.25;;
71172;SDS011;58875;51.996;4.504;2022-11-20T15:13:31;39.12;;;37.06;;
71172;SDS011;58875;51.996;4.504;2022-11-20T15:16:03;40.31;;;37.66;;
71172;SDS011;58875;51.996;4.504;2022-11-20T15:18:43;39.28;;;37.01;;
71172;SDS011;58875;51.996;4.504;2022-11-20T15:21:12;40.53;;;37.76;;
71172;SDS011;58875;51.996;4.504;2022-11-20T15:23:40;40.68;;;38.37;;
71172;SDS011;58875;51.996;4.504;2022-11-20T15:26:06;40.44;;;37.75;;
71172;SDS011;58875;51.996;4.504;2022-11-20T15:28:39;39.86;;;37.34;;
71172;SDS011;58875;51.996;4.504;2022-11-20T15:31:13;36.81;;;35.14;;
71172;SDS011;58875;51.996;4.504;2022-11-20T15:33:41;38.85;;;36.32;;
71172;SDS011;58875;51.996;4.504;2022-11-20T15:36:08;37.91;;;35.82;;
71172;SDS011;58875;51.996;4.504;2022-11-20T15:38:34;38.29;;;36.32;;
71172;SDS011;58875;51.996;4.504;2022-11-20T15:41:00;37.73;;;35.74;;
71172;SDS011;58875;51.996;4.504;2022-11-20T15:43:26;37.23;;;35.55;;
71172;SDS011;58875;51.996;4.504;2022-11-20T15:46:01;36.72;;;35.27;;
71172;SDS011;58875;51.996;4.504;2022-11-20T15:48:38;36.58;;;35.32;;
71172;SDS011;58875;51.996;4.504;2022-11-20T15:53:36;36.49;;;35.25;;
71172;SDS011;58875;51.996;4.504;2022-11-20T15:56:04;35.47;;;34.46;;
71172;SDS011;58875;51.996;4.504;2022-11-20T15:58:31;35.47;;;34.35;;
71172;SDS011;58875;51.996;4.504;2022-11-20T16:00:57;35.10;;;33.96;;
71172;SDS011;58875;51.996;4.504;2022-11-20T16:03:22;35.86;;;34.38;;
71172;SDS011;58875;51.996;4.504;2022-11-20T16:05:48;36.73;;;35.34;;
71172;SDS011;58875;51.996;4.504;2022-11-20T16:08:14;38.57;;;36.76;;
71172;SDS011;58875;51.996;4.504;2022-11-20T16:10:40;37.78;;;36.32;;
71172;SDS011;58875;51.996;4.504;2022-11-20T16:13:13;37.77;;;36.55;;